createdAt,value
2023-05-06T00:00:07.566Z,70.63
2023-05-06T00:01:07.540Z,70.56
2023-05-06T00:02:07.541Z,69.98
2023-05-06T00:03:07.557Z,70.03
2023-05-06T00:04:07.716Z,70.09
2023-05-06T00:05:07.594Z,70.23
2023-05-06T00:06:07.455Z,70.20
2023-05-06T00:07:07.445Z,70.45
2023-05-06T00:08:07.427Z,70.80
2023-05-06T00:09:07.424Z,70.16
2023-05-06T00:10:07.390Z,68.46
2023-05-06T00:11:07.397Z,68.86
2023-05-06T00:12:07.359Z,68.48
2023-05-06T00:13:07.432Z,68.19
2023-05-06T00:14:07.318Z,68.02
2023-05-06T00:15:07.551Z,67.99
2023-05-06T00:16:07.351Z,65.96
2023-05-06T00:17:07.293Z,68.26
2023-05-06T00:18:07.273Z,68.08
2023-05-06T00:19:07.244Z,66.55
2023-05-06T00:20:07.260Z,67.28
2023-05-06T00:21:07.331Z,67.80
2023-05-06T00:22:07.422Z,66.43
2023-05-06T00:23:07.508Z,66.42
2023-05-06T00:24:07.471Z,66.78
2023-05-06T00:25:07.795Z,66.50
2023-05-06T00:26:07.504Z,66.09
2023-05-06T00:27:07.461Z,65.77
2023-05-06T00:28:07.456Z,65.24
2023-05-06T00:29:07.421Z,65.48
2023-05-06T00:30:07.423Z,64.84
2023-05-06T00:31:07.462Z,63.87
2023-05-06T00:32:07.687Z,65.97
2023-05-06T00:33:07.711Z,64.16
2023-05-06T00:34:07.610Z,65.30
2023-05-06T00:35:07.975Z,64.15
2023-05-06T00:36:07.648Z,63.82
2023-05-06T00:37:07.669Z,63.63
2023-05-06T00:38:07.721Z,63.37
2023-05-06T00:39:07.712Z,63.53
2023-05-06T00:40:07.752Z,63.13
2023-05-06T00:41:07.748Z,63.17
2023-05-06T00:42:07.758Z,61.68
2023-05-06T00:43:07.793Z,61.33
2023-05-06T00:44:07.831Z,61.08
2023-05-06T00:45:08.129Z,62.20
2023-05-06T00:46:07.955Z,62.62
2023-05-06T00:47:07.923Z,61.96
2023-05-06T00:48:08.002Z,61.22
2023-05-06T00:49:07.941Z,62.40
2023-05-06T00:50:07.946Z,61.62
2023-05-06T00:51:07.984Z,61.11
2023-05-06T00:52:08.005Z,60.97
2023-05-06T00:53:08.040Z,60.15
2023-05-06T00:54:08.126Z,60.39
2023-05-06T00:55:08.281Z,60.72
2023-05-06T00:56:08.280Z,60.71
2023-05-06T00:57:08.345Z,60.44
2023-05-06T00:58:08.376Z,60.69
2023-05-06T00:59:08.344Z,59.31
2023-05-06T01:00:08.348Z,59.46
2023-05-06T01:01:08.404Z,59.53
2023-05-06T01:02:08.367Z,59.34
2023-05-06T01:03:08.443Z,58.23
2023-05-06T01:04:08.379Z,58.53
2023-05-06T01:05:08.469Z,58.93
2023-05-06T01:06:08.297Z,58.52
2023-05-06T01:07:08.319Z,57.81
2023-05-06T01:08:08.361Z,58.11
2023-05-06T01:09:08.414Z,57.99
2023-05-06T01:10:08.402Z,57.99
2023-05-06T01:11:08.407Z,58.10
2023-05-06T01:12:08.641Z,57.21
2023-05-06T01:13:08.468Z,56.84
2023-05-06T01:14:08.383Z,57.24
2023-05-06T01:15:08.750Z,56.98
2023-05-06T01:16:08.403Z,57.00
2023-05-06T01:17:08.485Z,56.84
2023-05-06T01:18:08.421Z,56.15
2023-05-06T01:19:08.347Z,55.83
2023-05-06T01:20:08.362Z,56.80
2023-05-06T01:21:08.335Z,56.38
2023-05-06T01:22:08.330Z,55.78
2023-05-06T01:23:08.338Z,54.78
2023-05-06T01:24:08.309Z,55.02
2023-05-06T01:25:08.580Z,54.74
2023-05-06T01:26:08.292Z,55.28
2023-05-06T01:27:08.294Z,55.41
2023-05-06T01:28:08.318Z,54.64
2023-05-06T01:29:08.280Z,53.62
2023-05-06T01:30:08.279Z,55.08
2023-05-06T01:31:08.368Z,52.65
2023-05-06T01:32:08.358Z,53.59
2023-05-06T01:33:08.450Z,52.81
2023-05-06T01:34:08.514Z,52.73
2023-05-06T01:35:08.753Z,53.36
2023-05-06T01:36:08.560Z,53.42
2023-05-06T01:37:08.631Z,52.70
2023-05-06T01:38:08.758Z,52.51
2023-05-06T01:39:08.690Z,52.30
2023-05-06T01:40:08.685Z,52.25
2023-05-06T01:41:08.686Z,52.30
2023-05-06T01:42:08.666Z,51.55
2023-05-06T01:43:08.688Z,51.34
2023-05-06T01:44:08.773Z,50.79
2023-05-06T01:45:08.936Z,50.72
2023-05-06T01:46:08.869Z,49.55
2023-05-06T01:47:08.938Z,50.54
2023-05-06T01:48:08.997Z,49.73
2023-05-06T01:49:08.945Z,50.08
2023-05-06T01:50:08.972Z,50.05
2023-05-06T01:51:08.928Z,48.18
2023-05-06T01:52:08.934Z,48.19
2023-05-06T01:53:09.022Z,48.55
2023-05-06T01:54:09.085Z,48.51
2023-05-06T01:55:09.199Z,49.37
2023-05-06T01:56:09.075Z,47.34
2023-05-06T01:57:09.066Z,48.36
2023-05-06T01:58:09.077Z,47.03
2023-05-06T01:59:09.053Z,47.46
2023-05-06T02:00:09.237Z,47.74
2023-05-06T02:01:09.025Z,46.47
2023-05-06T02:02:09.239Z,46.53
2023-05-06T02:03:09.219Z,45.92
2023-05-06T02:04:09.146Z,45.39
2023-05-06T02:05:09.406Z,45.21
2023-05-06T02:06:09.130Z,45.28
2023-05-06T02:07:09.114Z,45.31
2023-05-06T02:08:09.077Z,45.27
2023-05-06T02:09:09.043Z,45.31
2023-05-06T02:10:09.020Z,45.53
2023-05-06T02:11:09.003Z,45.73
2023-05-06T02:12:09.005Z,44.90
2023-05-06T02:13:09.026Z,44.87
2023-05-06T02:14:08.957Z,44.36
2023-05-06T02:15:09.156Z,43.82
2023-05-06T02:16:09.274Z,43.58
2023-05-06T02:17:08.898Z,43.58
2023-05-06T02:18:08.868Z,43.40
2023-05-06T02:19:08.839Z,42.80
2023-05-06T02:20:08.878Z,43.03
2023-05-06T02:21:08.796Z,42.09
2023-05-06T02:22:08.777Z,42.06
2023-05-06T02:23:08.757Z,41.69
2023-05-06T02:24:08.733Z,41.08
2023-05-06T02:25:08.926Z,41.72
2023-05-06T02:26:08.716Z,40.08
2023-05-06T02:27:08.714Z,40.09
2023-05-06T02:28:08.691Z,39.60
2023-05-06T02:29:08.655Z,39.46
2023-05-06T02:30:08.622Z,39.55
2023-05-06T02:31:08.622Z,38.88
2023-05-06T02:32:08.734Z,37.66
2023-05-06T02:33:08.722Z,38.17
2023-05-06T02:34:08.712Z,37.89
2023-05-06T02:35:08.922Z,37.77
2023-05-06T02:36:08.742Z,37.54
2023-05-06T02:37:08.746Z,36.66
2023-05-06T02:38:08.727Z,37.29
2023-05-06T02:39:08.703Z,36.69
2023-05-06T02:40:08.707Z,37.03
2023-05-06T02:41:08.684Z,37.17
2023-05-06T02:42:08.759Z,36.76
2023-05-06T02:43:08.751Z,36.30
2023-05-06T02:44:08.759Z,36.62
2023-05-06T02:45:09.015Z,36.11
2023-05-06T02:46:08.816Z,36.35
2023-05-06T02:47:08.890Z,35.04
2023-05-06T02:48:08.940Z,34.84
2023-05-06T02:49:08.851Z,33.98
2023-05-06T02:50:08.856Z,32.64
2023-05-06T02:51:08.842Z,32.39
2023-05-06T02:52:08.870Z,29.63
2023-05-06T02:53:08.882Z,27.10
2023-05-06T02:54:08.888Z,26.00
2023-05-06T02:55:09.120Z,24.89
2023-05-06T02:56:08.907Z,22.89
2023-05-06T02:57:08.901Z,22.58
2023-05-06T02:58:08.956Z,21.71
2023-05-06T02:59:08.975Z,20.93
2023-05-06T03:00:08.987Z,20.23
2023-05-06T03:01:09.059Z,20.02
2023-05-06T03:02:09.047Z,19.63
2023-05-06T03:03:09.161Z,18.82
2023-05-06T03:04:09.230Z,18.67
2023-05-06T03:05:09.307Z,18.32
2023-05-06T03:06:09.169Z,17.64
2023-05-06T03:07:09.220Z,17.49
2023-05-06T03:08:09.231Z,16.62
2023-05-06T03:09:09.271Z,16.40
2023-05-06T03:10:09.299Z,15.96
2023-05-06T03:11:09.338Z,15.55
2023-05-06T03:12:09.392Z,14.98
2023-05-06T03:13:09.482Z,14.62
2023-05-06T03:14:09.485Z,14.38
2023-05-06T03:15:09.764Z,13.64
2023-05-06T03:16:09.602Z,13.35
2023-05-06T03:17:09.621Z,13.10
2023-05-06T03:18:09.750Z,12.77
2023-05-06T03:19:09.736Z,12.52
2023-05-06T03:20:09.797Z,12.25
2023-05-06T03:21:09.826Z,11.96
2023-05-06T03:22:09.854Z,11.76
2023-05-06T03:23:09.908Z,11.62
2023-05-06T03:24:09.991Z,11.81
2023-05-06T03:25:10.225Z,11.46
2023-05-06T03:26:10.086Z,11.39
2023-05-06T03:27:10.134Z,11.48
2023-05-06T03:28:10.198Z,11.41
2023-05-06T03:29:10.250Z,11.48
2023-05-06T03:30:10.276Z,11.46
2023-05-06T03:31:10.347Z,11.51
2023-05-06T03:32:10.337Z,11.46
2023-05-06T03:33:10.400Z,11.63
2023-05-06T03:34:10.403Z,11.08
2023-05-06T03:35:10.616Z,11.34
2023-05-06T03:36:10.492Z,11.23
2023-05-06T03:37:10.488Z,11.45
2023-05-06T03:38:10.537Z,11.07
2023-05-06T03:39:10.558Z,11.32
2023-05-06T03:40:10.573Z,11.37
2023-05-06T03:41:10.592Z,11.43
2023-05-06T03:42:10.629Z,11.32
2023-05-06T03:43:10.682Z,11.59
2023-05-06T03:44:10.622Z,11.43
2023-05-06T03:45:10.963Z,11.68
2023-05-06T03:46:10.830Z,11.58
2023-05-06T03:47:10.796Z,11.67
2023-05-06T03:48:10.866Z,11.37
2023-05-06T03:49:10.865Z,11.37
2023-05-06T03:50:10.869Z,11.23
2023-05-06T03:51:10.900Z,11.12
2023-05-06T03:52:11.155Z,11.48
2023-05-06T03:53:11.012Z,11.11
2023-05-06T03:54:11.033Z,11.26
2023-05-06T03:55:11.233Z,11.26
2023-05-06T03:56:10.991Z,11.26
2023-05-06T03:57:11.011Z,11.22
2023-05-06T03:58:10.984Z,11.23
2023-05-06T03:59:10.995Z,11.35
2023-05-06T04:00:10.979Z,11.62
2023-05-06T04:01:10.964Z,11.39
2023-05-06T04:02:10.983Z,11.30
2023-05-06T04:03:11.034Z,11.43
2023-05-06T04:04:10.992Z,11.54
2023-05-06T04:05:11.144Z,11.28
2023-05-06T04:06:10.960Z,11.36
2023-05-06T04:07:10.933Z,11.47
2023-05-06T04:08:11.151Z,11.64
2023-05-06T04:09:10.933Z,11.63
2023-05-06T04:10:10.941Z,11.56
2023-05-06T04:11:10.917Z,11.38
2023-05-06T04:12:10.916Z,11.14
2023-05-06T04:13:10.915Z,11.47
2023-05-06T04:14:10.901Z,11.56
2023-05-06T04:15:11.113Z,11.50
2023-05-06T04:16:10.924Z,11.58
2023-05-06T04:17:10.905Z,11.23
2023-05-06T04:18:10.942Z,11.05
2023-05-06T04:19:10.909Z,10.84
2023-05-06T04:20:10.910Z,10.77
2023-05-06T04:21:10.909Z,10.86
2023-05-06T04:22:10.923Z,10.61
2023-05-06T04:23:10.968Z,10.19
2023-05-06T04:24:11.128Z,10.30
2023-05-06T04:25:11.171Z,10.16
2023-05-06T04:26:10.954Z,9.76
2023-05-06T04:27:10.989Z,9.66
2023-05-06T04:28:10.993Z,9.52
2023-05-06T04:29:11.011Z,9.72
2023-05-06T04:30:11.056Z,9.68
2023-05-06T04:31:11.080Z,9.67
2023-05-06T04:32:11.133Z,9.58
2023-05-06T04:33:11.134Z,9.75
2023-05-06T04:34:11.095Z,9.66
2023-05-06T04:35:11.312Z,9.92
2023-05-06T04:36:11.106Z,10.00
2023-05-06T04:37:11.126Z,9.94
2023-05-06T04:38:11.146Z,10.09
2023-05-06T04:39:11.170Z,10.22
2023-05-06T04:40:11.238Z,10.19
2023-05-06T04:41:11.188Z,10.03
2023-05-06T04:42:11.197Z,10.11
2023-05-06T04:43:11.228Z,9.88
2023-05-06T04:44:11.244Z,9.88
2023-05-06T04:45:11.377Z,10.10
2023-05-06T04:46:11.338Z,10.02
2023-05-06T04:47:11.290Z,10.23
2023-05-06T04:48:11.303Z,10.38
2023-05-06T04:49:12.524Z,10.25
2023-05-06T04:50:11.361Z,10.23
2023-05-06T04:51:11.368Z,10.01
2023-05-06T04:52:11.386Z,10.09
2023-05-06T04:53:11.419Z,10.13
2023-05-06T04:54:11.436Z,10.18
2023-05-06T04:55:11.711Z,10.32
2023-05-06T04:56:11.451Z,10.31
2023-05-06T04:57:11.477Z,10.34
2023-05-06T04:58:11.506Z,10.25
2023-05-06T04:59:11.525Z,10.48
2023-05-06T05:00:11.721Z,10.34
2023-05-06T05:01:11.579Z,10.55
2023-05-06T05:02:11.656Z,10.59
2023-05-06T05:03:11.765Z,10.39
2023-05-06T05:04:11.649Z,10.87
2023-05-06T05:05:11.805Z,11.13
2023-05-06T05:06:11.675Z,11.11
2023-05-06T05:07:11.671Z,11.13
2023-05-06T05:08:11.671Z,11.19
2023-05-06T05:09:11.685Z,11.42
2023-05-06T05:10:11.683Z,11.58
2023-05-06T05:11:11.656Z,12.12
2023-05-06T05:12:11.661Z,12.20
2023-05-06T05:13:11.697Z,12.45
2023-05-06T05:14:11.672Z,12.84
2023-05-06T05:15:11.833Z,12.70
2023-05-06T05:16:11.657Z,12.93
2023-05-06T05:17:11.780Z,12.35
2023-05-06T05:18:11.694Z,12.78
2023-05-06T05:19:11.661Z,12.60
2023-05-06T05:20:11.646Z,12.46
2023-05-06T05:21:11.653Z,12.49
2023-05-06T05:22:11.653Z,12.55
2023-05-06T05:23:11.658Z,12.64
2023-05-06T05:24:11.642Z,12.77
2023-05-06T05:25:11.862Z,12.81
2023-05-06T05:26:11.648Z,12.85
2023-05-06T05:27:11.675Z,12.93
2023-05-06T05:28:11.723Z,12.64
2023-05-06T05:29:11.655Z,12.58
2023-05-06T05:30:11.650Z,12.40
2023-05-06T05:31:11.667Z,12.40
2023-05-06T05:32:11.662Z,12.09
2023-05-06T05:33:11.703Z,12.06
2023-05-06T05:34:11.653Z,11.67
2023-05-06T05:35:11.929Z,11.58
2023-05-06T05:36:11.636Z,11.35
2023-05-06T05:37:11.652Z,11.12
2023-05-06T05:38:11.622Z,11.11
2023-05-06T05:39:11.654Z,10.92
2023-05-06T05:40:11.594Z,10.86
2023-05-06T05:41:11.586Z,10.83
2023-05-06T05:42:11.575Z,10.39
2023-05-06T05:43:11.601Z,10.44
2023-05-06T05:44:11.640Z,10.25
2023-05-06T05:45:11.639Z,10.21
2023-05-06T05:46:11.635Z,10.29
2023-05-06T05:47:11.611Z,10.36
2023-05-06T05:48:11.660Z,10.32
2023-05-06T05:49:11.655Z,10.21
2023-05-06T05:50:11.691Z,10.18
2023-05-06T05:51:11.721Z,10.27
2023-05-06T05:52:11.746Z,10.57
2023-05-06T05:53:11.774Z,10.65
2023-05-06T05:54:11.832Z,10.65
2023-05-06T05:55:11.826Z,10.50
2023-05-06T05:56:11.837Z,10.61
2023-05-06T05:57:11.867Z,10.63
2023-05-06T05:58:11.822Z,10.69
2023-05-06T05:59:11.813Z,10.78
2023-05-06T06:00:13.559Z,10.90
2023-05-06T06:01:11.802Z,11.12
2023-05-06T06:02:11.805Z,11.49
2023-05-06T06:03:11.901Z,11.31
2023-05-06T06:04:11.894Z,11.48
2023-05-06T06:05:11.940Z,11.30
2023-05-06T06:06:11.761Z,11.55
2023-05-06T06:07:11.838Z,11.67
2023-05-06T06:08:11.783Z,11.32
2023-05-06T06:09:11.779Z,11.14
2023-05-06T06:10:11.795Z,10.94
2023-05-06T06:11:11.763Z,10.92
2023-05-06T06:12:11.768Z,10.64
2023-05-06T06:13:11.812Z,10.60
2023-05-06T06:14:11.777Z,10.40
2023-05-06T06:15:11.950Z,10.19
2023-05-06T06:16:11.876Z,10.04
2023-05-06T06:17:11.758Z,9.72
2023-05-06T06:18:11.769Z,9.70
2023-05-06T06:19:11.798Z,9.57
2023-05-06T06:20:11.822Z,9.67
2023-05-06T06:21:11.851Z,9.14
2023-05-06T06:22:11.839Z,9.26
2023-05-06T06:23:11.871Z,9.36
2023-05-06T06:24:11.911Z,9.08
2023-05-06T06:25:12.054Z,9.04
2023-05-06T06:26:12.415Z,8.81
2023-05-06T06:27:11.930Z,8.83
2023-05-06T06:28:11.909Z,8.84
2023-05-06T06:29:11.957Z,8.83
2023-05-06T06:30:11.894Z,8.73
2023-05-06T06:31:11.968Z,8.35
2023-05-06T06:32:12.099Z,8.57
2023-05-06T06:33:11.899Z,8.43
2023-05-06T06:34:11.890Z,8.18
2023-05-06T06:35:12.022Z,8.16
2023-05-06T06:36:11.893Z,8.07
2023-05-06T06:37:11.860Z,7.91
2023-05-06T06:38:11.864Z,7.73
2023-05-06T06:39:11.866Z,7.75
2023-05-06T06:40:11.843Z,7.94
2023-05-06T06:41:11.852Z,8.10
2023-05-06T06:42:11.831Z,8.24
2023-05-06T06:43:11.854Z,7.80
2023-05-06T06:44:11.843Z,7.89
2023-05-06T06:45:12.111Z,7.90
2023-05-06T06:46:11.893Z,7.72
2023-05-06T06:47:11.800Z,7.62
2023-05-06T06:48:11.865Z,7.55
2023-05-06T06:49:11.823Z,7.53
2023-05-06T06:50:11.780Z,7.38
2023-05-06T06:51:11.782Z,7.29
2023-05-06T06:52:11.793Z,7.29
2023-05-06T06:53:11.792Z,7.20
2023-05-06T06:54:11.763Z,6.99
2023-05-06T06:55:11.980Z,6.95
2023-05-06T06:56:11.753Z,6.54
2023-05-06T06:57:11.764Z,6.50
2023-05-06T06:58:11.753Z,6.12
2023-05-06T06:59:11.761Z,6.04
2023-05-06T07:00:11.775Z,5.89
2023-05-06T07:01:11.818Z,5.84
2023-05-06T07:02:11.747Z,5.76
2023-05-06T07:03:11.756Z,5.95
2023-05-06T07:04:11.807Z,6.29
2023-05-06T07:05:12.031Z,6.57
2023-05-06T07:06:11.766Z,7.03
2023-05-06T07:07:11.726Z,7.30
2023-05-06T07:08:11.735Z,7.42
2023-05-06T07:09:11.723Z,7.50
2023-05-06T07:10:11.732Z,7.51
2023-05-06T07:11:11.708Z,7.48
2023-05-06T07:12:11.704Z,7.64
2023-05-06T07:13:11.786Z,7.79
2023-05-06T07:14:11.687Z,7.72
2023-05-06T07:15:11.912Z,7.68
2023-05-06T07:16:11.702Z,7.86
2023-05-06T07:17:11.714Z,7.80
2023-05-06T07:18:11.708Z,7.81
2023-05-06T07:19:11.657Z,7.87
2023-05-06T07:20:11.741Z,8.01
2023-05-06T07:21:11.659Z,8.52
2023-05-06T07:22:11.635Z,9.56
2023-05-06T07:23:11.649Z,9.67
2023-05-06T07:24:11.632Z,10.36
2023-05-06T07:25:11.842Z,10.87
2023-05-06T07:26:11.618Z,11.59
2023-05-06T07:27:11.595Z,12.05
2023-05-06T07:28:11.587Z,12.55
2023-05-06T07:29:11.576Z,12.94
2023-05-06T07:30:11.577Z,13.54
2023-05-06T07:31:11.604Z,13.46
2023-05-06T07:32:11.548Z,13.77
2023-05-06T07:33:11.545Z,14.23
2023-05-06T07:34:11.511Z,14.26
2023-05-06T07:35:11.717Z,14.34
2023-05-06T07:36:11.650Z,14.60
2023-05-06T07:37:11.502Z,14.98
2023-05-06T07:38:11.524Z,15.39
2023-05-06T07:39:11.504Z,15.73
2023-05-06T07:40:11.486Z,16.41
2023-05-06T07:41:11.481Z,16.50
2023-05-06T07:42:11.485Z,16.59
2023-05-06T07:43:11.499Z,15.85
2023-05-06T07:44:11.534Z,16.06
2023-05-06T07:45:11.925Z,15.68
2023-05-06T07:46:11.653Z,15.80
2023-05-06T07:47:11.820Z,15.53
2023-05-06T07:48:11.766Z,15.90
2023-05-06T07:49:11.773Z,16.21
2023-05-06T07:50:11.820Z,15.81
2023-05-06T07:51:11.858Z,15.68
2023-05-06T07:52:12.016Z,15.33
2023-05-06T07:53:11.970Z,15.22
2023-05-06T07:54:11.989Z,15.03
2023-05-06T07:55:12.214Z,15.11
2023-05-06T07:56:12.089Z,14.83
2023-05-06T07:57:12.056Z,14.86
2023-05-06T07:58:12.117Z,14.94
2023-05-06T07:59:12.038Z,14.95
2023-05-06T08:00:12.012Z,15.19
2023-05-06T08:01:12.027Z,14.86
2023-05-06T08:02:12.012Z,15.16
2023-05-06T08:03:12.008Z,14.33
2023-05-06T08:04:12.048Z,15.11
2023-05-06T08:05:12.199Z,14.86
2023-05-06T08:06:11.929Z,15.44
2023-05-06T08:07:11.894Z,15.31
2023-05-06T08:08:11.933Z,15.70
2023-05-06T08:09:13.071Z,15.50
2023-05-06T08:10:12.857Z,15.51
2023-05-06T08:11:11.824Z,15.39
2023-05-06T08:12:11.819Z,15.30
2023-05-06T08:13:11.871Z,15.38
2023-05-06T08:14:11.798Z,15.12
2023-05-06T08:15:11.918Z,14.78
2023-05-06T08:16:11.827Z,14.34
2023-05-06T08:17:11.760Z,13.58
2023-05-06T08:18:21.509Z,12.19
2023-05-06T08:19:12.753Z,10.69
2023-05-06T08:20:11.737Z,8.95
2023-05-06T08:21:11.752Z,7.88
2023-05-06T08:22:11.756Z,7.01
2023-05-06T08:23:11.727Z,6.16
2023-05-06T08:24:11.703Z,5.50
2023-05-06T08:25:11.906Z,5.11
2023-05-06T08:26:11.680Z,4.29
2023-05-06T08:27:11.679Z,3.75
2023-05-06T08:28:11.661Z,3.41
2023-05-06T08:29:11.635Z,3.14
2023-05-06T08:30:11.636Z,3.02
2023-05-06T08:31:11.661Z,2.79
2023-05-06T08:32:11.632Z,2.54
2023-05-06T08:33:11.614Z,2.44
2023-05-06T08:34:11.632Z,2.19
2023-05-06T08:35:11.881Z,1.98
2023-05-06T08:36:11.575Z,1.80
2023-05-06T08:37:11.570Z,1.74
2023-05-06T08:38:11.555Z,1.56
2023-05-06T08:39:11.547Z,1.57
2023-05-06T08:40:11.521Z,1.39
2023-05-06T08:41:11.500Z,1.23
2023-05-06T08:42:11.501Z,1.14
2023-05-06T08:43:11.487Z,1.12
2023-05-06T08:44:11.454Z,1.08
2023-05-06T08:45:11.636Z,1.06
2023-05-06T08:46:11.491Z,1.03
2023-05-06T08:47:11.407Z,0.96
2023-05-06T08:48:11.407Z,0.94
2023-05-06T08:49:11.379Z,1.02
2023-05-06T08:50:11.395Z,1.08
2023-05-06T08:51:11.356Z,1.17
2023-05-06T08:52:11.324Z,1.27
2023-05-06T08:53:11.310Z,1.34
2023-05-06T08:54:11.298Z,1.44
2023-05-06T08:55:11.496Z,1.54
2023-05-06T08:56:11.265Z,1.64
2023-05-06T08:57:12.507Z,1.80
2023-05-06T08:58:11.340Z,1.92
2023-05-06T08:59:11.285Z,2.00
2023-05-06T09:00:11.321Z,2.17
2023-05-06T09:01:11.372Z,2.27
2023-05-06T09:02:11.463Z,2.41
2023-05-06T09:03:11.475Z,2.58
2023-05-06T09:04:11.473Z,2.75
2023-05-06T09:05:11.564Z,2.84
2023-05-06T09:06:11.512Z,3.17
2023-05-06T09:07:11.523Z,3.30
2023-05-06T09:08:11.544Z,3.48
2023-05-06T09:09:11.564Z,3.64
2023-05-06T09:10:11.744Z,3.88
2023-05-06T09:11:11.613Z,4.06
2023-05-06T09:12:11.692Z,4.40
2023-05-06T09:13:11.701Z,4.48
2023-05-06T09:14:11.663Z,4.69
2023-05-06T09:15:11.937Z,4.92
2023-05-06T09:16:11.741Z,5.09
2023-05-06T09:17:11.721Z,5.51
2023-05-06T09:18:11.812Z,5.68
2023-05-06T09:19:11.738Z,5.94
2023-05-06T09:20:11.763Z,6.15
2023-05-06T09:21:11.759Z,6.53
2023-05-06T09:22:11.771Z,6.80
2023-05-06T09:23:11.769Z,7.08
2023-05-06T09:24:11.782Z,7.37
2023-05-06T09:25:12.096Z,7.69
2023-05-06T09:26:11.805Z,7.91
2023-05-06T09:27:13.257Z,8.26
2023-05-06T09:28:11.873Z,8.59
2023-05-06T09:29:11.781Z,8.79
2023-05-06T09:30:11.758Z,9.21
2023-05-06T09:31:11.788Z,9.55
2023-05-06T09:32:11.697Z,9.80
2023-05-06T09:33:11.679Z,9.82
2023-05-06T09:34:11.672Z,9.89
2023-05-06T09:35:11.958Z,10.17
2023-05-06T09:36:11.602Z,10.54
2023-05-06T09:37:11.554Z,11.18
2023-05-06T09:38:11.523Z,11.59
2023-05-06T09:39:11.514Z,11.62
2023-05-06T09:40:11.492Z,12.14
2023-05-06T09:41:11.470Z,12.53
2023-05-06T09:42:11.417Z,12.29
2023-05-06T09:43:11.390Z,12.88
2023-05-06T09:44:11.584Z,12.99
2023-05-06T09:45:11.494Z,13.35
2023-05-06T09:46:11.365Z,13.30
2023-05-06T09:47:11.290Z,13.86
2023-05-06T09:48:11.302Z,14.03
2023-05-06T09:49:11.317Z,14.26
2023-05-06T09:50:11.317Z,14.40
2023-05-06T09:51:11.250Z,14.88
2023-05-06T09:52:11.265Z,15.06
2023-05-06T09:53:11.310Z,15.05
2023-05-06T09:54:11.365Z,15.36
2023-05-06T09:55:11.492Z,15.60
2023-05-06T09:56:11.290Z,15.99
2023-05-06T09:57:11.393Z,16.08
2023-05-06T09:58:11.303Z,16.07
2023-05-06T09:59:11.361Z,16.46
2023-05-06T10:00:11.322Z,16.53
2023-05-06T10:01:13.269Z,16.80
2023-05-06T10:02:11.344Z,17.15
2023-05-06T10:03:11.489Z,17.10
2023-05-06T10:04:11.478Z,17.28
2023-05-06T10:05:11.914Z,17.14
2023-05-06T10:06:11.318Z,17.19
2023-05-06T10:07:11.283Z,17.24
2023-05-06T10:08:11.261Z,17.45
2023-05-06T10:09:11.197Z,17.82
2023-05-06T10:10:11.189Z,18.58
2023-05-06T10:11:11.160Z,18.70
2023-05-06T10:12:11.141Z,18.81
2023-05-06T10:13:11.149Z,18.30
2023-05-06T10:14:11.108Z,18.73
2023-05-06T10:15:11.266Z,18.86
2023-05-06T10:16:11.854Z,19.08
2023-05-06T10:17:11.028Z,19.18
2023-05-06T10:18:11.110Z,18.50
2023-05-06T10:19:10.986Z,18.56
2023-05-06T10:20:10.978Z,18.71
2023-05-06T10:21:10.945Z,18.72
2023-05-06T10:22:10.920Z,19.41
2023-05-06T10:23:10.904Z,19.89
2023-05-06T10:24:10.878Z,20.18
2023-05-06T10:25:11.084Z,20.26
2023-05-06T10:26:10.831Z,20.02
2023-05-06T10:27:10.816Z,19.97
2023-05-06T10:28:15.142Z,19.93
2023-05-06T10:29:11.844Z,19.95
2023-05-06T10:30:10.772Z,20.08
2023-05-06T10:31:10.727Z,20.24
2023-05-06T10:32:10.697Z,20.22
2023-05-06T10:33:10.667Z,19.99
2023-05-06T10:34:10.645Z,20.15
2023-05-06T10:35:10.773Z,20.31
2023-05-06T10:36:10.601Z,20.80
2023-05-06T10:37:10.569Z,21.25
2023-05-06T10:38:10.557Z,21.52
2023-05-06T10:39:10.543Z,21.22
2023-05-06T10:40:10.512Z,21.37
2023-05-06T10:41:10.470Z,21.46
2023-05-06T10:42:10.444Z,21.26
2023-05-06T10:43:10.438Z,21.49
2023-05-06T10:44:10.404Z,21.33
2023-05-06T10:45:10.570Z,21.35
2023-05-06T10:46:10.438Z,21.46
2023-05-06T10:47:10.310Z,21.24
2023-05-06T10:48:10.452Z,21.20
2023-05-06T10:49:10.251Z,21.11
2023-05-06T10:50:10.229Z,21.12
2023-05-06T10:51:10.183Z,20.90
2023-05-06T10:52:10.168Z,21.27
2023-05-06T10:53:10.122Z,21.60
2023-05-06T10:54:10.109Z,21.56
2023-05-06T10:55:10.202Z,22.02
2023-05-06T10:56:10.035Z,21.62
2023-05-06T10:57:10.026Z,21.50
2023-05-06T10:58:10.012Z,21.83
2023-05-06T10:59:09.999Z,21.08
2023-05-06T11:00:10.003Z,21.23
2023-05-06T11:01:10.058Z,21.48
2023-05-06T11:02:10.024Z,21.50
2023-05-06T11:03:10.111Z,21.71
2023-05-06T11:04:10.012Z,20.94
2023-05-06T11:05:10.119Z,21.80
2023-05-06T11:06:09.926Z,21.80
2023-05-06T11:07:09.894Z,21.83
2023-05-06T11:08:09.904Z,21.11
2023-05-06T11:09:09.846Z,21.70
2023-05-06T11:10:09.813Z,21.68
2023-05-06T11:11:09.774Z,21.51
2023-05-06T11:12:09.770Z,21.18
2023-05-06T11:13:09.813Z,20.92
2023-05-06T11:14:09.687Z,21.47
2023-05-06T11:15:09.810Z,21.32
2023-05-06T11:16:09.685Z,21.07
2023-05-06T11:17:09.751Z,21.37
2023-05-06T11:18:09.538Z,20.82
2023-05-06T11:19:09.528Z,21.31
2023-05-06T11:20:09.755Z,20.97
2023-05-06T11:21:09.465Z,20.55
2023-05-06T11:22:09.433Z,20.57
2023-05-06T11:23:09.405Z,20.72
2023-05-06T11:24:09.387Z,20.66
2023-05-06T11:25:09.357Z,20.58
2023-05-06T11:26:09.350Z,20.60
2023-05-06T11:27:09.306Z,20.74
2023-05-06T11:28:09.291Z,20.77
2023-05-06T11:29:09.262Z,20.80
2023-05-06T11:30:09.448Z,20.93
2023-05-06T11:31:09.241Z,20.86
2023-05-06T11:32:09.199Z,21.14
2023-05-06T11:33:09.186Z,21.22
2023-05-06T11:34:09.189Z,20.79
2023-05-06T11:35:09.120Z,21.02
2023-05-06T11:36:09.114Z,20.94
2023-05-06T11:37:09.109Z,20.84
2023-05-06T11:38:09.192Z,20.86
2023-05-06T11:39:09.169Z,20.76
2023-05-06T11:40:09.291Z,20.74
2023-05-06T11:41:09.254Z,20.62
2023-05-06T11:42:09.280Z,20.79
2023-05-06T11:43:09.310Z,20.69
2023-05-06T11:44:11.392Z,20.98
2023-05-06T11:45:09.372Z,20.74
2023-05-06T11:46:09.408Z,20.88
2023-05-06T11:47:09.463Z,20.82
2023-05-06T11:48:09.459Z,20.55
2023-05-06T11:49:09.501Z,20.78
2023-05-06T11:50:09.609Z,20.82
2023-05-06T11:51:09.567Z,20.52
2023-05-06T11:52:09.733Z,20.15
2023-05-06T11:53:09.641Z,20.74
2023-05-06T11:54:09.682Z,21.04
2023-05-06T11:55:09.747Z,20.41
2023-05-06T11:56:09.764Z,20.55
2023-05-06T11:57:09.810Z,20.46
2023-05-06T11:58:09.835Z,20.46
2023-05-06T11:59:09.870Z,20.65
2023-05-06T12:00:10.199Z,20.63
2023-05-06T12:01:09.846Z,20.65
2023-05-06T12:02:09.834Z,20.67
2023-05-06T12:03:09.868Z,20.73
2023-05-06T12:04:09.923Z,20.75
2023-05-06T12:05:09.732Z,20.63
2023-05-06T12:06:09.695Z,20.30
2023-05-06T12:07:09.679Z,20.12
2023-05-06T12:08:23.617Z,20.91
2023-05-06T12:09:10.611Z,20.92
2023-05-06T12:10:09.787Z,20.92
2023-05-06T12:11:09.551Z,20.77
2023-05-06T12:12:09.506Z,20.61
2023-05-06T12:13:09.572Z,20.57
2023-05-06T12:14:09.456Z,20.75
2023-05-06T12:15:09.405Z,20.61
2023-05-06T12:16:09.395Z,20.59
2023-05-06T12:17:09.387Z,20.22
2023-05-06T12:18:09.359Z,20.40
2023-05-06T12:19:09.309Z,20.50
2023-05-06T12:20:09.388Z,20.08
2023-05-06T12:21:09.259Z,20.15
2023-05-06T12:22:09.264Z,20.18
2023-05-06T12:23:09.288Z,19.90
2023-05-06T12:24:09.375Z,20.39
2023-05-06T12:25:09.453Z,20.35
2023-05-06T12:26:09.327Z,20.36
2023-05-06T12:27:09.376Z,19.87
2023-05-06T12:28:09.388Z,20.09
2023-05-06T12:29:09.388Z,20.08
2023-05-06T12:30:09.608Z,20.19
2023-05-06T12:31:09.457Z,20.01
2023-05-06T12:32:09.515Z,19.84
2023-05-06T12:33:09.480Z,20.28
2023-05-06T12:34:09.479Z,19.66
2023-05-06T12:35:09.469Z,19.68
2023-05-06T12:36:09.494Z,19.60
2023-05-06T12:37:09.496Z,19.43
2023-05-06T12:38:09.516Z,19.45
2023-05-06T12:39:09.510Z,19.51
2023-05-06T12:40:09.698Z,19.71
2023-05-06T12:41:09.491Z,19.40
2023-05-06T12:42:09.497Z,19.59
2023-05-06T12:43:09.484Z,19.17
2023-05-06T12:44:09.499Z,19.27
2023-05-06T12:45:09.486Z,19.50
2023-05-06T12:46:09.531Z,19.42
2023-05-06T12:47:09.531Z,19.46
2023-05-06T12:48:09.505Z,19.10
2023-05-06T12:49:09.494Z,19.32
2023-05-06T12:50:09.581Z,19.12
2023-05-06T12:51:09.459Z,18.98
2023-05-06T12:52:09.477Z,19.12
2023-05-06T12:53:09.463Z,19.00
2023-05-06T12:54:09.462Z,18.87
2023-05-06T12:55:09.457Z,18.98
2023-05-06T12:56:09.509Z,18.93
2023-05-06T12:57:09.460Z,19.03